createdAt,value
2018-12-24T00:00:42.662Z,5.30
2018-12-24T00:01:42.654Z,5.40
2018-12-24T00:02:42.642Z,4.00
2018-12-24T00:03:42.639Z,4.90
2018-12-24T00:04:42.619Z,4.40
2018-12-24T00:05:42.610Z,4.70
2018-12-24T00:06:42.598Z,4.40
2018-12-24T00:07:42.586Z,4.40
2018-12-24T00:08:42.578Z,4.80
2018-12-24T00:09:42.564Z,5.10
2018-12-24T00:10:42.555Z,4.70
2018-12-24T00:11:42.540Z,4.50
2018-12-24T00:12:42.532Z,5.90
2018-12-24T00:13:42.518Z,5.00
2018-12-24T00:14:42.510Z,4.60
2018-12-24T00:15:42.500Z,5.80
2018-12-24T00:16:42.485Z,6.40
2018-12-24T00:17:42.475Z,5.40
2018-12-24T00:18:42.464Z,5.10
2018-12-24T00:19:42.458Z,5.60
2018-12-24T00:20:42.441Z,5.50
2018-12-24T00:21:42.431Z,4.10
2018-12-24T00:22:42.423Z,5.10
2018-12-24T00:23:42.407Z,4.60
2018-12-24T00:24:42.397Z,4.10
2018-12-24T00:25:42.386Z,4.70
2018-12-24T00:26:42.373Z,6.20
2018-12-24T00:27:42.362Z,5.60
2018-12-24T00:28:42.354Z,5.20
2018-12-24T00:29:42.340Z,5.60
2018-12-24T00:30:42.329Z,3.30
2018-12-24T00:31:42.322Z,3.50
2018-12-24T00:32:42.314Z,2.90
2018-12-24T00:33:42.298Z,2.70
2018-12-24T00:34:42.294Z,2.80
2018-12-24T00:35:42.273Z,3.10
2018-12-24T00:36:42.271Z,3.20
2018-12-24T00:37:42.260Z,2.70
2018-12-24T00:38:42.240Z,2.60
2018-12-24T00:39:42.228Z,2.80
2018-12-24T00:40:42.216Z,3.00
2018-12-24T00:41:42.209Z,2.90
2018-12-24T00:42:42.199Z,3.40
2018-12-24T00:43:42.186Z,3.30
2018-12-24T00:44:42.173Z,4.00
2018-12-24T00:45:42.166Z,4.20
2018-12-24T00:46:42.153Z,3.80
2018-12-24T00:47:42.141Z,3.80
2018-12-24T00:48:42.134Z,4.80
2018-12-24T00:49:42.119Z,4.70
2018-12-24T00:50:42.105Z,4.70
2018-12-24T00:51:42.101Z,5.10
2018-12-24T00:52:42.086Z,5.60
2018-12-24T00:53:42.077Z,6.20
2018-12-24T00:54:42.063Z,6.30
2018-12-24T00:55:42.053Z,6.80
2018-12-24T00:57:01.738Z,6.20
2018-12-24T00:58:24.072Z,8.50
2018-12-24T00:59:24.058Z,6.40
2018-12-24T01:00:24.050Z,6.20
2018-12-24T01:01:24.037Z,6.00
2018-12-24T01:02:24.027Z,7.20
2018-12-24T01:03:24.021Z,7.90
2018-12-24T01:04:24.006Z,7.50
2018-12-24T01:05:23.997Z,8.10
2018-12-24T01:06:23.983Z,7.50
2018-12-24T01:07:23.970Z,7.90
2018-12-24T01:08:23.961Z,8.00
2018-12-24T01:09:24.020Z,8.20
2018-12-24T01:10:23.984Z,8.10
2018-12-24T01:11:23.926Z,8.60
2018-12-24T01:12:24.734Z,8.70
2018-12-24T01:13:23.904Z,8.50
2018-12-24T01:14:23.894Z,9.10
2018-12-24T01:15:23.882Z,9.60
2018-12-24T01:16:23.872Z,9.70
2018-12-24T01:17:23.861Z,9.60
2018-12-24T01:18:23.870Z,8.70
2018-12-24T01:19:23.836Z,9.40
2018-12-24T01:20:23.828Z,9.10
2018-12-24T01:21:23.816Z,8.50
2018-12-24T01:22:23.806Z,9.10
2018-12-24T01:23:23.793Z,8.80
2018-12-24T01:24:23.781Z,7.90
2018-12-24T01:25:23.773Z,8.30
2018-12-24T01:26:23.763Z,10.20
2018-12-24T01:27:23.747Z,9.50
2018-12-24T01:28:23.736Z,9.00
2018-12-24T01:29:23.727Z,8.30
2018-12-24T01:30:23.718Z,8.90
2018-12-24T01:31:23.709Z,7.10
2018-12-24T01:32:23.705Z,8.10
2018-12-24T01:33:23.682Z,8.70
2018-12-24T01:34:23.671Z,7.00
2018-12-24T01:35:23.661Z,9.10
2018-12-24T01:36:23.647Z,6.10
2018-12-24T01:37:23.637Z,7.40
2018-12-24T01:38:23.625Z,8.00
2018-12-24T01:39:23.614Z,6.80
2018-12-24T01:40:23.605Z,8.70
2018-12-24T01:41:23.592Z,7.50
2018-12-24T01:42:23.582Z,7.30
2018-12-24T01:43:23.570Z,7.10
2018-12-24T01:44:23.561Z,8.50
2018-12-24T01:45:23.547Z,7.50
2018-12-24T01:46:23.538Z,7.30
2018-12-24T01:47:23.526Z,7.20
2018-12-24T01:48:23.516Z,6.50
2018-12-24T01:49:23.505Z,6.70
2018-12-24T01:50:23.496Z,5.90
2018-12-24T01:51:23.480Z,5.20
2018-12-24T01:52:23.470Z,6.50
2018-12-24T01:53:23.459Z,5.80
2018-12-24T01:54:23.449Z,4.70
2018-12-24T01:55:23.438Z,5.30
2018-12-24T01:56:23.428Z,5.50
2018-12-24T01:57:23.415Z,5.20
2018-12-24T01:58:23.405Z,5.20
2018-12-24T01:59:23.392Z,6.30
2018-12-24T02:00:23.383Z,6.50
2018-12-24T02:01:23.370Z,6.90
2018-12-24T02:02:23.361Z,6.20
2018-12-24T02:03:23.348Z,6.50
2018-12-24T02:04:23.357Z,5.30
2018-12-24T02:05:23.327Z,6.30
2018-12-24T02:06:23.314Z,6.70
2018-12-24T02:07:23.303Z,6.60
2018-12-24T02:08:23.295Z,6.50
2018-12-24T02:09:23.283Z,7.00
2018-12-24T02:10:23.271Z,7.60
2018-12-24T02:11:23.259Z,6.60
2018-12-24T02:12:23.247Z,7.40
2018-12-24T02:13:23.238Z,7.00
2018-12-24T02:14:23.228Z,6.40
2018-12-24T02:15:23.218Z,7.70
2018-12-24T02:16:23.207Z,7.80
2018-12-24T02:17:23.193Z,6.60
2018-12-24T02:18:23.182Z,7.90
2018-12-24T02:19:23.170Z,6.70
2018-12-24T02:20:23.161Z,7.60
2018-12-24T02:21:23.148Z,6.80
2018-12-24T02:22:23.136Z,7.40
2018-12-24T02:23:23.128Z,8.40
2018-12-24T02:24:23.114Z,8.00
2018-12-24T02:25:23.103Z,8.30
2018-12-24T02:26:23.094Z,8.10
2018-12-24T02:27:23.081Z,9.00
2018-12-24T02:28:23.071Z,9.20
2018-12-24T02:29:23.059Z,11.30
2018-12-24T02:30:23.053Z,9.80
2018-12-24T02:31:23.036Z,9.60
2018-12-24T02:32:23.025Z,10.00
2018-12-24T02:33:23.019Z,10.30
2018-12-24T02:34:23.111Z,10.70
2018-12-24T02:35:22.993Z,11.80
2018-12-24T02:36:22.979Z,10.70
2018-12-24T02:37:22.967Z,10.70
2018-12-24T02:38:22.962Z,11.10
2018-12-24T02:39:22.948Z,11.30
2018-12-24T02:40:22.934Z,10.70
2018-12-24T02:41:22.924Z,12.60
2018-12-24T02:42:22.913Z,11.20
2018-12-24T02:43:22.905Z,11.20
2018-12-24T02:44:22.890Z,11.10
2018-12-24T02:45:22.885Z,15.00
2018-12-24T02:46:22.870Z,16.40
2018-12-24T02:47:22.857Z,15.90
2018-12-24T02:48:22.848Z,16.60
2018-12-24T02:49:22.841Z,18.70
2018-12-24T02:50:22.826Z,18.40
2018-12-24T02:51:22.822Z,19.00
2018-12-24T02:52:22.800Z,19.60
2018-12-24T02:53:22.791Z,17.80
2018-12-24T02:54:22.784Z,16.20
2018-12-24T02:55:22.772Z,17.00
2018-12-24T02:56:22.760Z,14.50
2018-12-24T02:57:22.746Z,15.10
2018-12-24T02:58:22.734Z,14.70
2018-12-24T02:59:22.726Z,13.20
2018-12-24T03:00:22.713Z,11.90
2018-12-24T03:01:22.702Z,11.70
2018-12-24T03:02:22.692Z,13.50
2018-12-24T03:03:22.682Z,13.00
2018-12-24T03:04:22.667Z,13.10
2018-12-24T03:05:22.658Z,13.30
2018-12-24T03:06:22.647Z,12.90
2018-12-24T03:07:22.636Z,14.00
2018-12-24T03:08:22.624Z,14.20
2018-12-24T03:09:22.612Z,12.80
2018-12-24T03:10:22.602Z,12.20
2018-12-24T03:11:22.590Z,12.30
2018-12-24T03:12:22.578Z,11.50
2018-12-24T03:13:22.571Z,13.80
2018-12-24T03:14:22.559Z,13.80
2018-12-24T03:15:22.546Z,13.80
2018-12-24T03:16:22.532Z,15.40
2018-12-24T03:17:22.523Z,17.90
2018-12-24T03:18:22.511Z,17.80
2018-12-24T03:19:22.500Z,18.40
2018-12-24T03:20:22.490Z,20.00
2018-12-24T03:21:22.479Z,18.20
2018-12-24T03:22:22.467Z,18.60
2018-12-24T03:23:22.455Z,20.20
2018-12-24T03:24:22.451Z,20.00
2018-12-24T03:25:22.435Z,18.90
2018-12-24T03:26:22.422Z,18.70
2018-12-24T03:27:22.410Z,17.60
2018-12-24T03:28:22.400Z,19.20
2018-12-24T03:29:22.391Z,16.80
2018-12-24T03:30:22.381Z,17.80
2018-12-24T03:31:22.373Z,16.40
2018-12-24T03:32:22.364Z,17.20
2018-12-24T03:33:22.353Z,16.80
2018-12-24T03:34:22.333Z,15.00
2018-12-24T03:35:22.322Z,16.80
2018-12-24T03:36:22.309Z,14.80
2018-12-24T03:37:22.297Z,15.10
2018-12-24T03:38:22.289Z,13.60
2018-12-24T03:39:22.276Z,11.90
2018-12-24T03:40:22.266Z,13.50
2018-12-24T03:41:22.259Z,11.70
2018-12-24T03:42:22.245Z,8.10
2018-12-24T03:43:22.232Z,8.00
2018-12-24T03:44:22.219Z,8.90
2018-12-24T03:45:22.209Z,7.10
2018-12-24T03:46:22.198Z,7.50
2018-12-24T03:47:22.189Z,8.10
2018-12-24T03:48:22.177Z,9.10
2018-12-24T03:49:22.165Z,9.10
2018-12-24T03:50:22.157Z,8.50
2018-12-24T03:51:22.147Z,8.20
2018-12-24T03:52:22.138Z,6.30
2018-12-24T03:53:22.120Z,8.90
2018-12-24T03:54:22.108Z,7.70
2018-12-24T03:55:22.098Z,6.20
2018-12-24T03:56:22.085Z,6.00
2018-12-24T03:57:22.079Z,6.60
2018-12-24T03:58:22.064Z,6.60
2018-12-24T03:59:22.055Z,5.40
2018-12-24T04:00:22.062Z,5.60
2018-12-24T04:01:22.062Z,5.90
2018-12-24T04:02:22.041Z,5.70
2018-12-24T04:03:22.027Z,5.80
2018-12-24T04:04:21.998Z,5.50
2018-12-24T04:05:21.991Z,4.90
2018-12-24T04:06:21.975Z,5.20
2018-12-24T04:07:21.965Z,5.30
2018-12-24T04:08:21.956Z,4.70
2018-12-24T04:09:21.939Z,4.90
2018-12-24T04:10:21.929Z,4.30
2018-12-24T04:11:24.146Z,4.50
2018-12-24T04:12:21.908Z,4.80
2018-12-24T04:13:22.627Z,4.80
2018-12-24T04:14:21.885Z,5.30
2018-12-24T04:15:21.874Z,5.40
2018-12-24T04:16:21.863Z,4.20
2018-12-24T04:17:21.853Z,4.30
2018-12-24T04:18:21.842Z,4.10
2018-12-24T04:19:21.832Z,5.00
2018-12-24T04:20:21.816Z,4.50
2018-12-24T04:21:22.839Z,3.70
2018-12-24T04:22:21.812Z,4.00
2018-12-24T04:23:21.784Z,4.80
2018-12-24T04:24:21.773Z,4.20
2018-12-24T04:25:21.764Z,2.80
2018-12-24T04:26:21.751Z,3.00
2018-12-24T04:27:21.745Z,2.70
2018-12-24T04:28:21.734Z,2.80
2018-12-24T04:29:21.716Z,3.00
2018-12-24T04:30:21.709Z,3.10
2018-12-24T04:31:21.694Z,3.40
2018-12-24T04:32:21.682Z,4.30
2018-12-24T04:33:21.679Z,2.40
2018-12-24T04:34:21.668Z,3.20
2018-12-24T04:35:21.650Z,3.00
2018-12-24T04:36:21.648Z,2.50
2018-12-24T04:37:21.628Z,2.90
2018-12-24T04:38:21.616Z,3.10
2018-12-24T04:39:21.605Z,2.90
2018-12-24T04:40:21.594Z,3.10
2018-12-24T04:41:21.581Z,3.40
2018-12-24T04:42:21.572Z,3.80
2018-12-24T04:43:21.575Z,2.90
2018-12-24T04:44:21.552Z,3.10
2018-12-24T04:45:21.538Z,3.50
2018-12-24T04:46:21.532Z,3.00
2018-12-24T04:47:21.516Z,2.90
2018-12-24T04:48:21.503Z,3.70
2018-12-24T04:49:21.497Z,3.80
2018-12-24T04:50:21.482Z,2.80
2018-12-24T04:51:21.472Z,3.20
2018-12-24T04:52:21.462Z,3.50
2018-12-24T04:53:21.453Z,3.90
2018-12-24T04:54:21.452Z,3.40
2018-12-24T04:55:21.427Z,3.20
2018-12-24T04:56:21.418Z,3.20
2018-12-24T04:57:21.404Z,3.50
2018-12-24T04:58:21.391Z,3.00
2018-12-24T04:59:21.382Z,3.60
2018-12-24T05:00:21.372Z,4.40
2018-12-24T05:01:21.361Z,3.30
2018-12-24T05:02:21.347Z,3.30
2018-12-24T05:03:21.338Z,3.50
2018-12-24T05:04:21.325Z,3.70
2018-12-24T05:05:21.314Z,3.20
2018-12-24T05:06:21.303Z,2.80
2018-12-24T05:07:21.294Z,4.00
2018-12-24T05:08:21.281Z,3.80
2018-12-24T05:09:21.271Z,4.30
2018-12-24T05:10:21.259Z,3.60
2018-12-24T05:11:21.249Z,3.10
2018-12-24T05:12:21.237Z,3.80
2018-12-24T05:13:21.227Z,3.90
2018-12-24T05:14:21.214Z,3.00
2018-12-24T05:15:21.205Z,3.00
2018-12-24T05:16:21.195Z,3.40
2018-12-24T05:17:21.183Z,2.80
2018-12-24T05:18:21.174Z,3.30
2018-12-24T05:19:21.159Z,3.30
2018-12-24T05:20:21.150Z,3.60
2018-12-24T05:21:21.138Z,3.00
2018-12-24T05:22:21.128Z,3.20
2018-12-24T05:23:21.118Z,3.90
2018-12-24T05:24:21.105Z,3.30
2018-12-24T05:25:21.097Z,3.00
2018-12-24T05:26:21.084Z,3.20
2018-12-24T05:27:21.071Z,4.10
2018-12-24T05:28:21.060Z,3.40
2018-12-24T05:29:21.086Z,3.50
2018-12-24T05:30:21.039Z,3.60
2018-12-24T05:31:21.028Z,5.00
2018-12-24T05:32:21.022Z,3.50
2018-12-24T05:33:21.009Z,4.30
2018-12-24T05:34:20.997Z,3.80
2018-12-24T05:35:20.984Z,4.80
2018-12-24T05:36:20.984Z,3.50
2018-12-24T05:37:20.963Z,4.30
2018-12-24T05:38:20.951Z,3.80
2018-12-24T05:39:20.940Z,3.60
2018-12-24T05:40:20.930Z,3.90
2018-12-24T05:41:20.920Z,4.00
2018-12-24T05:42:20.908Z,4.00
2018-12-24T05:43:20.895Z,5.40
2018-12-24T05:44:20.887Z,3.90
2018-12-24T05:45:20.874Z,3.90
2018-12-24T05:46:20.864Z,4.30
2018-12-24T05:47:20.854Z,3.50
2018-12-24T05:48:20.842Z,3.90
2018-12-24T05:49:20.830Z,3.60
2018-12-24T05:50:20.818Z,3.70
2018-12-24T05:51:20.807Z,5.00
2018-12-24T05:52:20.799Z,3.90
2018-12-24T05:53:20.787Z,4.00
2018-12-24T05:54:20.775Z,4.00
2018-12-24T05:55:20.765Z,3.50
2018-12-24T05:56:20.755Z,4.30
2018-12-24T05:57:20.743Z,3.90
2018-12-24T05:58:20.733Z,3.70
2018-12-24T05:59:20.723Z,4.10
2018-12-24T06:00:20.711Z,2.90
2018-12-24T06:01:20.701Z,3.80
2018-12-24T06:02:20.687Z,3.30
2018-12-24T06:03:20.676Z,3.10
2018-12-24T06:04:22.220Z,4.20
2018-12-24T06:05:20.655Z,3.00
2018-12-24T06:06:20.645Z,3.30
2018-12-24T06:07:20.631Z,3.30
2018-12-24T06:08:20.622Z,3.90
2018-12-24T06:09:20.611Z,3.80
2018-12-24T06:10:20.599Z,3.20
2018-12-24T06:11:20.589Z,3.50
2018-12-24T06:12:20.579Z,3.30
2018-12-24T06:13:20.567Z,3.00
2018-12-24T06:14:20.554Z,3.10
2018-12-24T06:15:20.543Z,2.80
2018-12-24T06:16:20.532Z,3.20
2018-12-24T06:17:20.522Z,3.00
2018-12-24T06:18:20.512Z,3.70
2018-12-24T06:19:20.500Z,3.70
2018-12-24T06:20:20.491Z,2.80
2018-12-24T06:21:20.480Z,2.90
2018-12-24T06:22:20.468Z,2.80
2018-12-24T06:23:20.458Z,3.00
2018-12-24T06:24:20.445Z,2.40
2018-12-24T06:25:20.436Z,2.50
2018-12-24T06:26:20.424Z,2.20
2018-12-24T06:27:20.413Z,2.40
2018-12-24T06:28:20.403Z,2.30
2018-12-24T06:29:20.391Z,2.20
2018-12-24T06:30:20.381Z,2.10
2018-12-24T06:31:20.370Z,2.20
2018-12-24T06:32:20.357Z,2.50
2018-12-24T06:33:20.347Z,2.30
2018-12-24T06:34:20.337Z,2.30
2018-12-24T06:35:20.326Z,2.30
2018-12-24T06:36:20.316Z,2.60
2018-12-24T06:37:20.303Z,2.40
2018-12-24T06:38:20.293Z,2.50
2018-12-24T06:39:20.282Z,2.30
2018-12-24T06:40:20.271Z,2.20
2018-12-24T06:41:20.258Z,2.20
2018-12-24T06:42:20.250Z,2.30
2018-12-24T06:43:20.237Z,2.00
2018-12-24T06:44:20.225Z,2.10
2018-12-24T06:45:20.217Z,2.60
2018-12-24T06:46:20.205Z,2.20
2018-12-24T06:47:20.194Z,2.50
2018-12-24T06:48:20.182Z,2.40
2018-12-24T06:49:20.171Z,2.80
2018-12-24T06:50:20.163Z,2.10
2018-12-24T06:51:20.150Z,2.30
2018-12-24T06:52:20.139Z,2.10
2018-12-24T06:53:20.128Z,2.40
2018-12-24T06:54:20.116Z,3.00
2018-12-24T06:55:20.104Z,2.30
2018-12-24T06:56:20.094Z,2.50
2018-12-24T06:57:20.082Z,2.20
2018-12-24T06:58:20.071Z,2.50
2018-12-24T06:59:20.061Z,2.80
2018-12-24T07:00:20.049Z,2.40
2018-12-24T07:01:20.040Z,4.00
2018-12-24T07:02:20.033Z,2.30
2018-12-24T07:03:20.016Z,2.60
2018-12-24T07:04:20.005Z,2.60
2018-12-24T07:05:19.997Z,2.70
2018-12-24T07:06:19.983Z,2.50
2018-12-24T07:07:19.974Z,2.50
2018-12-24T07:08:19.962Z,2.70
2018-12-24T07:09:19.969Z,3.10
2018-12-24T07:10:19.941Z,2.30
2018-12-24T07:11:19.928Z,2.40
2018-12-24T07:12:19.916Z,2.40
2018-12-24T07:13:19.906Z,2.80
2018-12-24T07:14:19.896Z,3.00
2018-12-24T07:15:19.884Z,2.90
2018-12-24T07:16:19.876Z,3.00
2018-12-24T07:17:19.864Z,2.60
2018-12-24T07:18:19.854Z,2.90
2018-12-24T07:19:19.839Z,2.50
2018-12-24T07:20:19.829Z,2.50
2018-12-24T07:21:19.820Z,2.50
2018-12-24T07:22:19.807Z,2.10
2018-12-24T07:23:19.797Z,2.40
2018-12-24T07:24:19.787Z,2.40
2018-12-24T07:25:19.774Z,2.30
2018-12-24T07:26:19.763Z,2.30
2018-12-24T07:27:19.753Z,2.30
2018-12-24T07:28:19.745Z,2.40
2018-12-24T07:29:19.733Z,2.40
2018-12-24T07:30:19.721Z,2.10
2018-12-24T07:31:19.709Z,2.40
2018-12-24T07:32:19.701Z,2.00
2018-12-24T07:33:19.688Z,1.80
2018-12-24T07:34:19.676Z,1.20
2018-12-24T07:35:19.664Z,1.50
2018-12-24T07:36:19.655Z,1.70
2018-12-24T07:37:19.643Z,1.60
2018-12-24T07:38:19.632Z,1.70
2018-12-24T07:39:19.623Z,1.50
2018-12-24T07:40:19.611Z,1.40
2018-12-24T07:41:19.598Z,1.50
2018-12-24T07:42:19.589Z,1.60
2018-12-24T07:43:19.577Z,2.00
2018-12-24T07:44:24.155Z,2.10
2018-12-24T07:45:19.555Z,1.20
2018-12-24T07:46:19.543Z,1.80
2018-12-24T07:47:19.532Z,1.90
2018-12-24T07:48:19.523Z,1.20
2018-12-24T07:49:19.512Z,1.30
2018-12-24T07:50:19.499Z,1.20
2018-12-24T07:51:19.495Z,1.50
2018-12-24T07:52:19.482Z,1.30
2018-12-24T07:53:19.468Z,1.40
2018-12-24T07:54:19.457Z,1.70
2018-12-24T07:55:19.444Z,1.60
2018-12-24T07:56:19.437Z,2.10
2018-12-24T07:57:19.423Z,1.50
2018-12-24T07:58:19.414Z,1.20
2018-12-24T07:59:19.403Z,0.80
2018-12-24T08:00:19.392Z,1.40
2018-12-24T08:01:19.378Z,1.00
2018-12-24T08:02:19.371Z,1.30
2018-12-24T08:03:19.356Z,2.10
2018-12-24T08:04:19.347Z,1.30
2018-12-24T08:05:19.336Z,1.50
2018-12-24T08:06:19.324Z,1.40
2018-12-24T08:07:19.312Z,1.20
2018-12-24T08:08:19.302Z,1.60
2018-12-24T08:09:19.291Z,1.30
2018-12-24T08:10:19.281Z,1.40
2018-12-24T08:11:19.271Z,1.50
2018-12-24T08:12:19.265Z,1.50
2018-12-24T08:13:19.248Z,1.50
2018-12-24T08:14:19.237Z,2.10
2018-12-24T08:15:19.227Z,1.40
2018-12-24T08:16:19.216Z,1.50
2018-12-24T08:17:19.205Z,2.40
2018-12-24T08:18:19.195Z,1.20
2018-12-24T08:19:19.191Z,1.90
2018-12-24T08:20:19.173Z,1.20
2018-12-24T08:21:19.160Z,1.50
2018-12-24T08:22:19.150Z,1.30
2018-12-24T08:23:19.139Z,1.20
2018-12-24T08:24:19.127Z,2.10
2018-12-24T08:25:19.118Z,1.20
2018-12-24T08:26:19.104Z,1.30
2018-12-24T08:27:19.095Z,0.90
2018-12-24T08:28:19.082Z,1.30
2018-12-24T08:29:19.071Z,1.50
2018-12-24T08:30:19.059Z,1.10
2018-12-24T08:31:19.053Z,1.10
2018-12-24T08:32:19.042Z,1.90
2018-12-24T08:33:19.028Z,1.70
2018-12-24T08:34:19.017Z,2.00
2018-12-24T08:35:19.006Z,1.40
2018-12-24T08:36:18.995Z,1.50
2018-12-24T08:37:18.983Z,1.40
2018-12-24T08:38:18.974Z,2.30
2018-12-24T08:39:18.960Z,2.00
2018-12-24T08:40:18.951Z,2.10
2018-12-24T08:41:18.940Z,1.90
2018-12-24T08:42:18.932Z,2.10
2018-12-24T08:43:18.919Z,1.70
2018-12-24T08:44:18.933Z,2.20
2018-12-24T08:45:18.898Z,2.20
2018-12-24T08:46:18.884Z,2.50
2018-12-24T08:47:18.874Z,2.20
2018-12-24T08:48:18.863Z,1.80
2018-12-24T08:49:18.850Z,1.90
2018-12-24T08:50:18.840Z,2.10
2018-12-24T08:51:18.831Z,2.00
2018-12-24T08:52:18.817Z,2.90
2018-12-24T08:53:18.811Z,2.50
2018-12-24T08:54:18.796Z,2.10
2018-12-24T08:55:18.787Z,2.20
2018-12-24T08:56:18.775Z,2.20
2018-12-24T08:57:18.767Z,2.10
2018-12-24T08:58:18.755Z,2.20
2018-12-24T08:59:18.741Z,2.30
2018-12-24T09:00:18.735Z,2.40
2018-12-24T09:01:18.721Z,2.20
2018-12-24T09:02:18.711Z,2.60
2018-12-24T09:03:18.698Z,2.90
2018-12-24T09:04:18.687Z,2.00
2018-12-24T09:05:18.678Z,2.70
2018-12-24T09:06:18.669Z,2.70
2018-12-24T09:07:18.654Z,2.60
2018-12-24T09:08:18.646Z,2.60
2018-12-24T09:09:19.096Z,2.50
2018-12-24T09:10:18.623Z,2.80
2018-12-24T09:11:18.608Z,2.60
2018-12-24T09:12:18.601Z,3.10
2018-12-24T09:13:18.588Z,2.80
2018-12-24T09:14:18.579Z,3.40
2018-12-24T09:15:18.566Z,4.00
2018-12-24T09:16:18.554Z,3.90
2018-12-24T09:17:18.547Z,3.50
2018-12-24T09:18:18.534Z,4.10
2018-12-24T09:19:18.521Z,6.10
2018-12-24T09:20:18.514Z,3.80
2018-12-24T09:21:18.500Z,3.00
2018-12-24T09:22:18.490Z,3.20
2018-12-24T09:23:18.479Z,3.30
2018-12-24T09:24:18.466Z,3.10
2018-12-24T09:25:18.456Z,2.50
2018-12-24T09:26:18.446Z,2.80
2018-12-24T09:27:18.449Z,2.60
2018-12-24T09:28:18.424Z,2.40
2018-12-24T09:29:18.413Z,2.40
2018-12-24T09:30:18.400Z,2.70
2018-12-24T09:31:18.388Z,4.30
2018-12-24T09:32:18.379Z,2.70
2018-12-24T09:33:18.367Z,2.50
2018-12-24T09:34:18.358Z,2.90
2018-12-24T09:35:18.344Z,2.20
2018-12-24T09:36:18.443Z,3.10
2018-12-24T09:37:18.324Z,2.10
2018-12-24T09:38:18.315Z,2.70
2018-12-24T09:39:18.303Z,2.60
2018-12-24T09:40:18.291Z,2.60
2018-12-24T09:41:18.279Z,2.50
2018-12-24T09:42:18.270Z,2.50
2018-12-24T09:43:18.258Z,2.50
2018-12-24T09:44:18.247Z,2.20
2018-12-24T09:45:18.238Z,2.30
2018-12-24T09:46:18.225Z,2.30
2018-12-24T09:47:18.216Z,1.90
2018-12-24T09:48:18.206Z,2.90
2018-12-24T09:49:18.191Z,2.20
2018-12-24T09:50:18.181Z,3.00
2018-12-24T09:51:18.177Z,3.50
2018-12-24T09:52:18.159Z,2.30
2018-12-24T09:53:18.147Z,2.60
2018-12-24T09:54:18.138Z,2.50
2018-12-24T09:55:18.125Z,2.60
2018-12-24T09:56:18.113Z,2.10
2018-12-24T09:57:18.102Z,2.30
2018-12-24T09:58:18.093Z,2.40
2018-12-24T09:59:18.082Z,2.60
2018-12-24T10:00:18.071Z,2.50
2018-12-24T10:01:18.061Z,2.30
2018-12-24T10:02:18.049Z,2.60
2018-12-24T10:03:18.038Z,2.60
2018-12-24T10:04:18.028Z,2.30
2018-12-24T10:05:18.014Z,3.50
2018-12-24T10:06:18.011Z,2.20
2018-12-24T10:07:17.992Z,5.30
2018-12-24T10:08:17.984Z,4.20
2018-12-24T10:09:17.972Z,5.00
2018-12-24T10:10:17.963Z,3.50
2018-12-24T10:11:17.948Z,3.30
2018-12-24T10:12:17.938Z,3.20
2018-12-24T10:13:17.926Z,3.60
2018-12-24T10:14:17.915Z,2.70
2018-12-24T10:15:17.903Z,3.00
2018-12-24T10:16:17.894Z,2.80
2018-12-24T10:17:17.884Z,2.50
2018-12-24T10:18:17.871Z,2.90
2018-12-24T10:19:17.861Z,2.80
2018-12-24T10:20:17.850Z,2.30
2018-12-24T10:21:17.845Z,2.20
2018-12-24T10:22:17.833Z,2.20
2018-12-24T10:23:17.817Z,2.30
2018-12-24T10:24:17.804Z,2.20
2018-12-24T10:25:17.795Z,2.20
2018-12-24T10:26:17.785Z,2.60
2018-12-24T10:27:17.778Z,2.50
2018-12-24T10:28:17.783Z,2.70
2018-12-24T10:29:19.600Z,2.70
2018-12-24T10:30:17.737Z,3.00
2018-12-24T10:31:17.728Z,2.30
2018-12-24T10:32:17.716Z,2.80
2018-12-24T10:33:17.709Z,2.80
2018-12-24T10:34:17.697Z,3.10
2018-12-24T10:35:17.683Z,3.10
2018-12-24T10:36:17.672Z,2.40
2018-12-24T10:37:17.662Z,2.10
2018-12-24T10:38:17.654Z,2.60
2018-12-24T10:39:17.641Z,2.70
2018-12-24T10:40:17.629Z,2.60
2018-12-24T10:41:17.618Z,3.20
2018-12-24T10:42:17.606Z,2.80
2018-12-24T10:43:17.597Z,3.30
2018-12-24T10:44:17.584Z,3.20
2018-12-24T10:45:17.584Z,2.90
2018-12-24T10:46:17.562Z,4.20
2018-12-24T10:47:17.554Z,3.30
2018-12-24T10:48:17.542Z,4.40
2018-12-24T10:49:17.530Z,4.90
2018-12-24T10:50:17.522Z,3.80
2018-12-24T10:51:17.507Z,3.60
2018-12-24T10:52:17.499Z,3.70
2018-12-24T10:53:17.485Z,4.00
2018-12-24T10:54:17.477Z,3.80
2018-12-24T10:55:17.463Z,4.20
2018-12-24T10:56:17.453Z,3.80
2018-12-24T10:57:17.442Z,2.70
2018-12-24T10:58:17.431Z,3.20
2018-12-24T10:59:17.420Z,2.30
2018-12-24T11:00:17.410Z,3.10
2018-12-24T11:01:17.399Z,3.50
2018-12-24T11:02:17.390Z,3.30
2018-12-24T11:03:17.379Z,2.10
2018-12-24T11:04:17.366Z,2.70
2018-12-24T11:05:17.354Z,3.40
2018-12-24T11:06:17.343Z,3.10
2018-12-24T11:07:17.335Z,3.70
2018-12-24T11:08:17.322Z,2.90
2018-12-24T11:09:17.328Z,2.80
2018-12-24T11:10:17.320Z,3.00
2018-12-24T11:11:17.299Z,2.80
2018-12-24T11:12:17.286Z,2.60
2018-12-24T11:13:17.267Z,2.60
2018-12-24T11:14:17.261Z,2.50
2018-12-24T11:15:24.852Z,2.20
2018-12-24T11:16:18.244Z,2.40
2018-12-24T11:17:17.246Z,2.80
2018-12-24T11:18:17.243Z,2.80
2018-12-24T11:19:17.222Z,2.40
2018-12-24T11:20:17.222Z,3.00
2018-12-24T11:21:17.208Z,2.50
2018-12-24T11:22:17.180Z,2.30
2018-12-24T11:23:17.182Z,4.30
2018-12-24T11:24:17.210Z,3.30
2018-12-24T11:25:17.162Z,4.20
2018-12-24T11:26:17.126Z,4.70
2018-12-24T11:27:17.112Z,4.00
2018-12-24T11:28:17.134Z,4.20
2018-12-24T11:29:17.091Z,5.40
2018-12-24T11:30:17.080Z,4.10
2018-12-24T11:31:17.070Z,3.40
2018-12-24T11:32:17.059Z,3.10
2018-12-24T11:33:17.050Z,3.90
2018-12-24T11:34:17.036Z,3.70
2018-12-24T11:35:17.028Z,5.10
2018-12-24T11:36:17.014Z,3.60
2018-12-24T11:37:17.004Z,3.30
2018-12-24T11:38:16.992Z,3.20
2018-12-24T11:39:16.981Z,3.00
2018-12-24T11:40:16.969Z,3.30
2018-12-24T11:41:16.962Z,3.60
2018-12-24T11:42:16.948Z,3.20
2018-12-24T11:43:16.938Z,3.00
2018-12-24T11:44:16.924Z,3.60
2018-12-24T11:45:16.916Z,4.20
2018-12-24T11:46:16.903Z,4.90
2018-12-24T11:47:16.892Z,3.30
2018-12-24T11:48:16.883Z,3.80
2018-12-24T11:49:16.871Z,4.10
2018-12-24T11:50:16.861Z,3.40
2018-12-24T11:51:16.850Z,2.90
2018-12-24T11:52:16.839Z,4.10
2018-12-24T11:53:16.828Z,5.00
2018-12-24T11:54:16.818Z,8.00
2018-12-24T11:55:16.806Z,12.30
2018-12-24T11:56:16.794Z,9.90
2018-12-24T11:57:16.784Z,18.80
2018-12-24T11:58:16.871Z,16.80
2018-12-24T11:59:16.761Z,37.40
2018-12-24T12:00:16.757Z,20.20
2018-12-24T12:01:16.741Z,23.50
2018-12-24T12:02:16.729Z,9.30
2018-12-24T12:03:16.717Z,4.80
2018-12-24T12:04:16.708Z,4.00
2018-12-24T12:05:16.697Z,3.50
2018-12-24T12:06:19.800Z,3.20
2018-12-24T12:07:16.673Z,4.10
2018-12-24T12:08:16.664Z,3.20
2018-12-24T12:09:16.653Z,3.70
2018-12-24T12:10:16.643Z,4.10
2018-12-24T12:11:16.631Z,4.00
2018-12-24T12:12:16.622Z,3.70
2018-12-24T12:13:16.610Z,4.80
2018-12-24T12:14:16.597Z,4.00
2018-12-24T12:15:16.590Z,4.70
2018-12-24T12:16:16.575Z,5.60
2018-12-24T12:17:16.565Z,5.40
2018-12-24T12:18:16.551Z,4.50
2018-12-24T12:19:16.543Z,3.60
2018-12-24T12:20:16.532Z,5.70
2018-12-24T12:21:16.520Z,4.20
2018-12-24T12:22:16.512Z,4.30
2018-12-24T12:23:16.500Z,4.60
2018-12-24T12:24:16.486Z,4.70
2018-12-24T12:25:16.478Z,3.70
2018-12-24T12:26:16.466Z,4.10
2018-12-24T12:27:16.453Z,4.00
2018-12-24T12:28:17.297Z,3.80
2018-12-24T12:29:16.432Z,4.00
2018-12-24T12:30:16.465Z,4.70
2018-12-24T12:31:16.410Z,4.90
2018-12-24T12:32:16.399Z,5.00
2018-12-24T12:33:16.389Z,4.30
2018-12-24T12:34:16.378Z,4.40
2018-12-24T12:35:16.367Z,3.90
2018-12-24T12:36:16.368Z,5.00
2018-12-24T12:37:16.345Z,4.40
2018-12-24T12:38:16.331Z,5.70
2018-12-24T12:39:16.325Z,4.90
2018-12-24T12:40:16.312Z,9.40
2018-12-24T12:41:16.305Z,25.40
2018-12-24T12:42:17.678Z,14.80
2018-12-24T12:43:16.278Z,17.00
2018-12-24T12:44:16.269Z,9.00
2018-12-24T12:45:16.255Z,15.10
2018-12-24T12:46:16.246Z,9.40
2018-12-24T12:47:16.236Z,8.90
2018-12-24T12:48:16.226Z,7.00
2018-12-24T12:49:16.215Z,13.20
2018-12-24T12:50:16.201Z,9.90
2018-12-24T12:51:16.190Z,7.40
2018-12-24T12:52:16.179Z,6.30
2018-12-24T12:53:16.172Z,4.10
2018-12-24T12:54:16.156Z,3.50
2018-12-24T12:55:16.147Z,4.10
2018-12-24T12:56:16.691Z,3.60
2018-12-24T12:57:16.131Z,3.60
2018-12-24T12:58:16.115Z,3.70
2018-12-24T12:59:16.103Z,4.60
2018-12-24T13:00:16.093Z,4.90
2018-12-24T13:01:16.080Z,4.10
2018-12-24T13:02:16.072Z,4.20
2018-12-24T13:03:16.063Z,4.60
2018-12-24T13:04:16.048Z,3.70
2018-12-24T13:05:16.037Z,4.40
2018-12-24T13:06:16.026Z,4.10
2018-12-24T13:07:16.016Z,3.70
2018-12-24T13:08:16.005Z,4.30
2018-12-24T13:09:15.995Z,4.90
2018-12-24T13:10:15.982Z,3.70
2018-12-24T13:11:15.971Z,4.50
2018-12-24T13:12:15.967Z,3.50
2018-12-24T13:13:15.949Z,3.70
2018-12-24T13:14:15.943Z,3.60
2018-12-24T13:15:15.927Z,3.90
2018-12-24T13:16:15.926Z,5.40